Time;durP1;ratioP1;P1;durP2;ratioP2;P2;SDS_P1;SDS_P2;PMS_P1;PMS_P2;Temp;Humidity;BMP_temperature;BMP_pressure;BME280_temperature;BME280_humidity;BME280_pressure;Samples;Min_cycle;Max_cycle;Signal;HPM_P1;HPM_P2
2023/10/27 00:00:58;;;;;;;20.58;15.90;;;10.20;99.90;;;;;;5051420;28;20513;-74
2023/10/27 00:03:24;;;;;;;20.15;15.20;;;10.20;99.90;;;;;;5033294;28;20041;-74
2023/10/27 00:05:50;;;;;;;22.65;15.43;;;10.20;99.90;;;;;;5059262;28;20037;-74
2023/10/27 00:08:16;;;;;;;22.15;14.65;;;10.20;99.90;;;;;;5053443;28;20098;-73
2023/10/27 00:10:42;;;;;;;22.67;15.38;;;10.20;99.90;;;;;;5049933;28;20040;-74
2023/10/27 00:13:08;;;;;;;20.50;15.77;;;10.20;99.90;;;;;;5050937;28;20099;-73
2023/10/27 00:15:34;;;;;;;23.25;16.50;;;10.20;99.90;;;;;;5058350;28;20146;-74
2023/10/27 00:18:00;;;;;;;20.92;16.05;;;10.10;99.90;;;;;;5067720;28;20154;-74
2023/10/27 00:20:26;;;;;;;19.15;14.65;;;10.20;99.90;;;;;;5065155;28;20113;-74
2023/10/27 00:22:51;;;;;;;18.25;14.65;;;10.10;99.90;;;;;;5060942;28;20040;-73
2023/10/27 00:25:17;;;;;;;17.25;12.95;;;10.20;99.90;;;;;;5052676;28;20044;-73
2023/10/27 00:27:43;;;;;;;17.65;13.65;;;10.20;99.90;;;;;;5063063;28;20484;-73
2023/10/27 00:30:09;;;;;;;16.85;12.70;;;10.10;99.90;;;;;;5064064;28;20051;-74
2023/10/27 00:32:36;;;;;;;16.05;12.27;;;10.20;99.90;;;;;;5071198;28;20480;-74
2023/10/27 00:35:05;;;;;;;16.67;11.90;;;10.20;99.90;;;;;;5053120;28;20099;-73
2023/10/27 00:37:35;;;;;;;18.58;11.75;;;10.20;99.90;;;;;;5056696;28;20040;-74
2023/10/27 00:40:02;;;;;;;15.40;11.98;;;10.20;99.90;;;;;;5056143;28;20045;-74
2023/10/27 00:42:28;;;;;;;16.15;12.18;;;10.10;99.90;;;;;;5054108;28;20055;-74
2023/10/27 00:44:54;;;;;;;17.13;12.57;;;10.10;99.90;;;;;;5054468;28;20041;-73
2023/10/27 00:47:20;;;;;;;17.85;13.32;;;10.20;99.90;;;;;;5057570;28;20067;-73
2023/10/27 00:49:47;;;;;;;16.90;13.40;;;10.20;99.90;;;;;;5059628;28;20052;-73
2023/10/27 00:52:13;;;;;;;18.67;13.82;;;10.10;99.90;;;;;;5070255;28;20425;-73
2023/10/27 00:54:40;;;;;;;18.30;13.85;;;10.20;99.90;;;;;;5064743;28;20041;-74
2023/10/27 00:57:06;;;;;;;19.42;14.80;;;10.20;99.90;;;;;;5057351;28;20510;-73
2023/10/27 00:59:34;;;;;;;20.17;14.77;;;10.10;99.90;;;;;;5063013;28;20074;-73
2023/10/27 01:01:59;;;;;;;21.08;14.50;;;10.20;99.90;;;;;;5060674;28;20057;-74
2023/10/27 01:04:25;;;;;;;22.75;14.48;;;10.20;99.90;;;;;;5067973;28;20056;-74
2023/10/27 01:06:52;;;;;;;19.90;13.90;;;10.10;99.90;;;;;;5053624;28;20487;-74
2023/10/27 01:09:19;;;;;;;20.15;14.85;;;10.20;99.90;;;;;;5058918;28;20080;-74
2023/10/27 01:11:45;;;;;;;16.55;13.05;;;10.20;99.90;;;;;;5070311;28;20079;-73
2023/10/27 01:14:11;;;;;;;18.98;13.85;;;10.20;99.90;;;;;;5057439;28;20128;-74
2023/10/27 01:16:37;;;;;;;19.00;13.32;;;10.20;99.90;;;;;;5054060;28;20124;-74
2023/10/27 01:19:03;;;;;;;20.05;14.50;;;10.20;99.90;;;;;;5055646;28;20053;-73
2023/10/27 01:21:29;;;;;;;22.23;14.73;;;10.10;99.90;;;;;;5079774;28;20064;-73
2023/10/27 01:23:55;;;;;;;21.45;14.60;;;10.10;99.90;;;;;;5052995;28;20059;-74
2023/10/27 01:26:21;;;;;;;22.48;14.32;;;10.10;99.90;;;;;;5053509;28;20037;-73
2023/10/27 01:28:46;;;;;;;24.92;15.23;;;10.10;99.90;;;;;;5063034;28;20041;-73
2023/10/27 01:31:12;;;;;;;20.77;14.45;;;10.10;99.90;;;;;;5069131;28;20494;-73
2023/10/27 01:33:38;;;;;;;22.00;16.17;;;10.10;99.90;;;;;;5061038;28;20036;-73
2023/10/27 01:36:05;;;;;;;23.00;14.57;;;10.10;99.90;;;;;;5059950;28;20544;-73
2023/10/27 01:38:30;;;;;;;21.30;15.07;;;10.10;99.90;;;;;;5068569;28;20068;-73
2023/10/27 01:40:56;;;;;;;25.88;15.65;;;10.10;99.90;;;;;;5067570;28;20129;-73
2023/10/27 01:43:22;;;;;;;23.67;15.93;;;10.10;99.90;;;;;;5054825;28;20048;-74
2023/10/27 01:45:48;;;;;;;17.85;13.55;;;10.10;99.90;;;;;;5055320;28;20130;-73
2023/10/27 01:48:13;;;;;;;22.30;13.77;;;10.10;99.90;;;;;;5071926;28;20044;-73
2023/10/27 01:50:39;;;;;;;19.80;14.95;;;10.10;99.90;;;;;;5060790;28;20505;-74
2023/10/27 01:53:05;;;;;;;15.60;11.55;;;10.10;99.90;;;;;;5068016;28;20075;-74
2023/10/27 01:55:30;;;;;;;21.48;15.38;;;10.10;99.90;;;;;;5052983;28;20033;-74
2023/10/27 01:57:57;;;;;;;20.02;15.45;;;10.00;99.90;;;;;;5046985;28;20056;-73
2023/10/27 02:00:23;;;;;;;21.42;16.13;;;10.00;99.90;;;;;;5063889;28;20040;-74
2023/10/27 02:02:49;;;;;;;18.33;14.63;;;10.00;99.90;;;;;;5061576;28;20046;-74
2023/10/27 02:05:15;;;;;;;19.80;16.55;;;10.00;99.90;;;;;;5057400;28;20044;-74
2023/10/27 02:07:40;;;;;;;16.83;14.00;;;10.00;99.90;;;;;;5058913;28;20127;-73
2023/10/27 02:10:07;;;;;;;21.55;16.13;;;10.00;99.90;;;;;;5071368;28;20044;-73
2023/10/27 02:12:32;;;;;;;20.35;15.73;;;10.00;99.90;;;;;;5053666;28;20073;-74
2023/10/27 02:14:58;;;;;;;21.50;15.95;;;10.00;99.90;;;;;;5064895;28;20076;-74
2023/10/27 02:17:24;;;;;;;19.63;15.10;;;10.00;99.90;;;;;;5052712;28;20057;-73
2023/10/27 02:19:50;;;;;;;20.30;14.75;;;10.00;99.90;;;;;;5057080;28;20094;-74
2023/10/27 02:22:17;;;;;;;19.80;15.88;;;10.00;99.90;;;;;;5052970;28;20120;-74
2023/10/27 02:24:44;;;;;;;21.50;15.95;;;10.00;99.90;;;;;;5062886;28;20043;-74
2023/10/27 02:27:10;;;;;;;19.08;14.75;;;10.00;99.90;;;;;;5035080;28;20076;-74
2023/10/27 02:29:35;;;;;;;23.30;14.80;;;10.00;99.90;;;;;;5055470;28;20068;-74
2023/10/27 02:32:01;;;;;;;20.35;14.93;;;10.00;99.90;;;;;;5071320;28;20044;-73
2023/10/27 02:34:27;;;;;;;17.52;13.50;;;10.00;99.90;;;;;;5070448;28;20394;-74
2023/10/27 02:36:53;;;;;;;20.55;15.23;;;10.00;99.90;;;;;;5063282;28;20379;-73
2023/10/27 02:39:18;;;;;;;19.08;14.13;;;10.00;99.90;;;;;;5052556;28;20407;-73
2023/10/27 02:41:45;;;;;;;18.92;13.65;;;10.00;99.90;;;;;;5049413;28;20035;-73
2023/10/27 02:44:11;;;;;;;20.88;15.18;;;10.00;99.90;;;;;;5062094;28;20052;-74
2023/10/27 02:46:37;;;;;;;17.38;14.90;;;10.00;99.90;;;;;;5054190;28;20509;-73
2023/10/27 02:49:03;;;;;;;19.45;15.60;;;10.00;99.90;;;;;;5066469;28;20119;-74
2023/10/27 02:51:30;;;;;;;20.42;15.68;;;10.00;99.90;;;;;;5056926;28;20556;-74
2023/10/27 02:53:56;;;;;;;20.35;15.52;;;10.00;99.90;;;;;;5070866;28;20494;-74
2023/10/27 02:56:22;;;;;;;19.30;14.13;;;10.00;99.90;;;;;;5061792;28;20040;-73
2023/10/27 02:58:49;;;;;;;18.25;15.73;;;10.00;99.90;;;;;;5071378;28;20129;-72
2023/10/27 03:01:14;;;;;;;19.60;15.63;;;10.00;99.90;;;;;;5067783;28;20053;-73
2023/10/27 03:03:41;;;;;;;18.25;14.80;;;10.00;99.90;;;;;;5069391;28;20040;-74
2023/10/27 03:06:07;;;;;;;18.67;14.63;;;9.90;99.90;;;;;;5071601;28;20040;-72
2023/10/27 03:08:34;;;;;;;17.73;14.40;;;10.00;99.90;;;;;;5071202;28;20049;-73
2023/10/27 03:11:01;;;;;;;18.17;15.10;;;9.90;99.90;;;;;;5072022;28;20117;-73
2023/10/27 03:13:27;;;;;;;18.88;14.77;;;10.00;99.90;;;;;;5069029;28;20045;-73
2023/10/27 03:15:53;;;;;;;21.48;15.65;;;9.90;99.90;;;;;;5067952;28;20056;-72
2023/10/27 03:18:19;;;;;;;20.13;13.85;;;9.90;99.90;;;;;;5058216;28;20055;-72
2023/10/27 03:20:44;;;;;;;18.40;14.10;;;9.90;99.90;;;;;;5058061;28;20394;-72
2023/10/27 03:23:10;;;;;;;20.30;15.35;;;9.90;99.90;;;;;;5056953;28;20048;-73
2023/10/27 03:25:36;;;;;;;25.02;15.82;;;9.90;99.90;;;;;;5055093;28;20053;-72
2023/10/27 03:28:02;;;;;;;19.27;15.10;;;9.90;99.90;;;;;;5050492;28;20113;-72
2023/10/27 03:30:28;;;;;;;22.35;15.80;;;9.90;99.90;;;;;;5051825;28;20043;-72
2023/10/27 03:32:54;;;;;;;18.40;13.73;;;9.90;99.90;;;;;;5064797;28;20832;-72
2023/10/27 03:35:20;;;;;;;20.15;15.23;;;9.90;99.90;;;;;;5062836;28;20136;-72
2023/10/27 03:37:46;;;;;;;22.75;15.75;;;9.90;99.90;;;;;;5063521;28;20123;-73
2023/10/27 03:40:12;;;;;;;19.60;15.40;;;9.90;99.90;;;;;;5051982;28;20045;-72
2023/10/27 03:42:37;;;;;;;18.02;12.15;;;9.90;99.90;;;;;;5061483;28;20051;-73
2023/10/27 03:45:04;;;;;;;20.02;16.00;;;9.90;99.90;;;;;;5073341;28;20048;-73
2023/10/27 03:47:30;;;;;;;20.48;14.45;;;9.90;99.90;;;;;;5090032;28;20043;-72
2023/10/27 03:49:55;;;;;;;22.80;15.52;;;9.90;99.90;;;;;;5091187;28;20941;-73
2023/10/27 03:52:21;;;;;;;21.17;15.88;;;9.90;99.90;;;;;;5074330;28;20136;-72
2023/10/27 03:54:47;;;;;;;22.42;16.42;;;9.80;99.90;;;;;;5064562;28;20048;-72
2023/10/27 03:57:12;;;;;;;21.98;16.88;;;9.80;99.90;;;;;;5061806;28;20453;-72
2023/10/27 03:59:38;;;;;;;22.20;16.25;;;9.80;99.90;;;;;;5071241;28;20041;-73
2023/10/27 04:02:06;;;;;;;22.15;17.27;;;9.80;99.90;;;;;;5083060;28;20409;-72
2023/10/27 04:04:32;;;;;;;20.23;16.73;;;9.70;99.90;;;;;;5076197;28;20033;-72
2023/10/27 04:06:59;;;;;;;21.55;15.68;;;9.70;99.90;;;;;;5077806;28;20045;-72
2023/10/27 04:09:26;;;;;;;21.88;15.85;;;9.70;99.90;;;;;;5079150;28;20048;-72
2023/10/27 04:11:51;;;;;;;22.35;16.05;;;9.70;99.90;;;;;;5083027;28;20086;-72
2023/10/27 04:14:17;;;;;;;22.73;15.43;;;9.70;99.90;;;;;;5069173;28;20073;-73
2023/10/27 04:16:43;;;;;;;20.27;15.02;;;9.70;99.90;;;;;;5073787;28;20052;-73
2023/10/27 04:19:08;;;;;;;20.98;15.35;;;9.70;99.90;;;;;;5073638;28;20044;-72
2023/10/27 04:21:34;;;;;;;21.33;15.68;;;9.70;99.90;;;;;;5074953;28;20040;-72
2023/10/27 04:24:00;;;;;;;22.38;16.75;;;9.70;99.90;;;;;;5073249;28;20044;-72
2023/10/27 04:26:25;;;;;;;21.60;16.17;;;9.70;99.90;;;;;;5074525;28;20037;-72
2023/10/27 04:28:52;;;;;;;21.13;16.40;;;9.70;99.90;;;;;;5071179;28;20051;-72
2023/10/27 04:31:18;;;;;;;22.13;17.25;;;9.70;99.90;;;;;;5074599;28;20394;-72
2023/10/27 04:33:47;;;;;;;21.38;14.77;;;9.70;99.90;;;;;;5074157;28;20032;-72
2023/10/27 04:36:14;;;;;;;21.65;16.15;;;9.70;99.90;;;;;;5067670;28;20044;-73
2023/10/27 04:38:42;;;;;;;20.58;16.23;;;9.70;99.90;;;;;;5074454;28;20121;-73
2023/10/27 04:41:09;;;;;;;20.92;16.42;;;9.60;99.90;;;;;;5063722;28;20061;-73
2023/10/27 04:43:35;;;;;;;21.65;16.27;;;9.60;99.90;;;;;;5074473;28;20041;-73
2023/10/27 04:46:01;;;;;;;25.90;16.65;;;9.60;99.90;;;;;;5073522;28;20040;-73
2023/10/27 04:48:27;;;;;;;24.67;16.88;;;9.60;99.90;;;;;;5073921;28;20040;-73
2023/10/27 04:50:58;;;;;;;20.80;16.13;;;9.60;99.90;;;;;;5073857;28;20413;-73
2023/10/27 04:53:24;;;;;;;21.20;16.55;;;9.60;99.90;;;;;;5073278;28;20041;-73
2023/10/27 04:55:50;;;;;;;21.48;15.98;;;9.50;99.90;;;;;;5073330;28;20396;-73
2023/10/27 04:58:17;;;;;;;23.00;17.25;;;9.50;99.90;;;;;;5074143;28;20056;-73
2023/10/27 05:00:43;;;;;;;22.02;16.73;;;9.50;99.90;;;;;;5077012;28;20455;-73
2023/10/27 05:03:09;;;;;;;21.83;17.60;;;9.50;99.90;;;;;;5073534;28;20052;-74
2023/10/27 05:05:34;;;;;;;21.60;15.98;;;9.50;99.90;;;;;;5073133;28;20106;-73
2023/10/27 05:08:00;;;;;;;20.58;16.92;;;9.50;99.90;;;;;;5073272;28;20040;-73
2023/10/27 05:10:27;;;;;;;20.17;14.00;;;9.50;99.90;;;;;;5070955;28;20045;-73
2023/10/27 05:12:53;;;;;;;21.73;16.25;;;9.40;99.90;;;;;;5069241;28;20073;-73
2023/10/27 05:15:19;;;;;;;25.13;17.15;;;9.40;99.90;;;;;;5054338;28;20502;-73
2023/10/27 05:17:46;;;;;;;24.05;16.10;;;9.40;99.90;;;;;;5055789;28;20040;-73
2023/10/27 05:20:12;;;;;;;20.60;16.83;;;9.40;99.90;;;;;;5069009;28;20045;-73
2023/10/27 05:22:38;;;;;;;23.92;17.77;;;9.40;99.90;;;;;;5068220;28;20478;-73
2023/10/27 05:25:06;;;;;;;24.65;16.00;;;9.30;99.90;;;;;;5073052;28;20044;-73
2023/10/27 05:27:33;;;;;;;25.30;16.25;;;9.40;99.90;;;;;;5073027;28;20075;-73
2023/10/27 05:29:59;;;;;;;26.42;16.80;;;9.40;99.90;;;;;;5072685;28;20083;-72
2023/10/27 05:32:25;;;;;;;24.63;16.02;;;9.40;99.90;;;;;;5073093;28;21273;-73
2023/10/27 05:34:52;;;;;;;24.13;15.23;;;9.40;99.90;;;;;;5073032;28;20036;-73
2023/10/27 05:37:19;;;;;;;20.52;15.30;;;9.40;99.90;;;;;;5064386;28;20045;-73
2023/10/27 05:39:44;;;;;;;22.38;16.58;;;9.40;99.90;;;;;;5066805;28;20056;-73
2023/10/27 05:42:10;;;;;;;20.50;16.50;;;9.40;99.90;;;;;;5071756;28;20049;-73
2023/10/27 05:44:36;;;;;;;21.98;16.83;;;9.40;99.90;;;;;;5070639;28;20474;-72
2023/10/27 05:47:03;;;;;;;24.55;16.80;;;9.50;99.90;;;;;;5071805;28;20363;-73
2023/10/27 05:49:29;;;;;;;19.20;15.88;;;9.50;99.90;;;;;;5072727;28;20137;-73
2023/10/27 05:51:54;;;;;;;20.15;15.82;;;9.50;99.90;;;;;;5069241;28;21467;-73
2023/10/27 05:54:20;;;;;;;21.20;15.95;;;9.50;99.90;;;;;;5068427;28;20098;-72
2023/10/27 05:56:46;;;;;;;19.73;15.80;;;9.60;99.90;;;;;;5073207;28;20052;-73
2023/10/27 05:59:11;;;;;;;22.92;15.65;;;9.60;99.90;;;;;;5071706;28;20807;-73
2023/10/27 06:01:37;;;;;;;19.73;15.02;;;9.60;99.90;;;;;;5072858;28;20048;-72
2023/10/27 06:04:03;;;;;;;21.20;15.27;;;9.60;99.90;;;;;;5069862;28;20049;-72
2023/10/27 06:06:29;;;;;;;18.85;14.73;;;9.60;99.90;;;;;;5038081;28;20051;-73
2023/10/27 06:08:55;;;;;;;17.85;13.88;;;9.60;99.90;;;;;;5071986;28;20672;-74
2023/10/27 06:11:21;;;;;;;16.42;13.15;;;9.60;99.90;;;;;;5070369;28;20048;-74
2023/10/27 06:13:47;;;;;;;19.35;13.70;;;9.70;99.90;;;;;;5069968;28;20040;-74
2023/10/27 06:16:13;;;;;;;18.60;13.43;;;9.60;99.90;;;;;;5071509;28;20478;-74
2023/10/27 06:18:39;;;;;;;18.65;13.77;;;9.70;99.90;;;;;;5070734;28;20052;-74
2023/10/27 06:21:05;;;;;;;20.30;13.80;;;9.70;99.90;;;;;;5071352;28;20502;-73
2023/10/27 06:23:31;;;;;;;17.10;13.38;;;9.70;99.90;;;;;;5065300;28;20067;-73
2023/10/27 06:25:57;;;;;;;17.50;13.02;;;9.70;99.90;;;;;;5050986;28;20403;-73
2023/10/27 06:28:23;;;;;;;20.27;13.50;;;9.70;99.90;;;;;;5064560;28;20482;-73
2023/10/27 06:30:48;;;;;;;19.42;13.30;;;9.70;99.90;;;;;;5070305;28;20055;-73
2023/10/27 06:33:14;;;;;;;17.33;13.27;;;9.70;99.90;;;;;;5070185;28;20052;-76
2023/10/27 06:35:40;;;;;;;18.50;14.07;;;9.70;99.90;;;;;;5071131;28;20041;-73
2023/10/27 06:38:06;;;;;;;16.95;13.18;;;9.70;99.90;;;;;;5070734;28;20059;-74
2023/10/27 06:40:32;;;;;;;18.13;13.43;;;9.70;99.90;;;;;;5052577;28;20500;-74
2023/10/27 06:42:58;;;;;;;17.13;12.93;;;9.70;99.90;;;;;;5071263;28;20123;-73
2023/10/27 06:45:24;;;;;;;18.27;13.82;;;9.70;99.90;;;;;;5034101;28;20125;-74
2023/10/27 06:47:50;;;;;;;16.80;13.40;;;9.70;99.90;;;;;;5065550;28;20076;-74
2023/10/27 06:50:16;;;;;;;18.73;14.30;;;9.70;99.90;;;;;;5069560;28;20516;-74
2023/10/27 06:52:41;;;;;;;19.88;14.60;;;9.70;99.90;;;;;;5072164;28;20051;-74
2023/10/27 06:55:07;;;;;;;18.02;13.80;;;9.70;99.90;;;;;;5071188;28;20393;-73
2023/10/27 06:57:33;;;;;;;17.88;14.07;;;9.70;99.90;;;;;;5072147;28;20433;-73
2023/10/27 06:59:59;;;;;;;16.38;13.93;;;9.70;99.90;;;;;;5054333;28;20127;-73
2023/10/27 07:02:25;;;;;;;19.95;13.55;;;9.70;99.90;;;;;;5066716;28;20044;-73
2023/10/27 07:04:51;;;;;;;16.80;13.88;;;9.70;99.90;;;;;;5070471;28;20041;-74
2023/10/27 07:07:18;;;;;;;17.73;14.70;;;9.70;99.90;;;;;;5070078;28;20036;-73
2023/10/27 07:09:44;;;;;;;18.13;14.18;;;9.70;99.90;;;;;;5066697;28;20135;-73
2023/10/27 07:12:10;;;;;;;16.77;13.38;;;9.70;99.90;;;;;;5067162;28;20146;-73
2023/10/27 07:14:36;;;;;;;17.35;13.57;;;9.70;99.90;;;;;;5067543;28;20048;-73
2023/10/27 07:17:03;;;;;;;17.38;14.05;;;9.80;99.90;;;;;;5071012;28;20144;-73
2023/10/27 07:19:33;;;;;;;16.95;14.40;;;9.80;99.90;;;;;;5062984;28;20049;-73
2023/10/27 07:22:00;;;;;;;18.35;14.25;;;9.80;99.90;;;;;;5056629;28;20486;-73
2023/10/27 07:24:27;;;;;;;18.63;14.80;;;9.80;99.90;;;;;;5062065;28;20554;-73
2023/10/27 07:26:53;;;;;;;19.15;15.27;;;9.80;99.90;;;;;;5061240;28;20105;-73
2023/10/27 07:29:19;;;;;;;18.35;15.48;;;9.80;99.90;;;;;;5069274;28;20436;-73
2023/10/27 07:31:44;;;;;;;18.33;15.13;;;9.80;99.90;;;;;;5046740;28;20497;-73
2023/10/27 07:34:10;;;;;;;17.30;14.93;;;9.80;99.90;;;;;;5063106;28;20081;-74
2023/10/27 07:36:36;;;;;;;16.75;13.77;;;9.80;99.90;;;;;;5069434;28;20098;-72
2023/10/27 07:39:02;;;;;;;18.73;13.95;;;9.80;99.90;;;;;;5069774;28;20121;-73
2023/10/27 07:41:28;;;;;;;18.55;14.15;;;9.80;99.90;;;;;;5062374;28;20040;-72
2023/10/27 07:43:53;;;;;;;18.13;14.38;;;9.90;99.90;;;;;;5068754;28;20047;-73
2023/10/27 07:46:19;;;;;;;18.08;14.65;;;9.80;99.90;;;;;;5066896;28;20119;-72
2023/10/27 07:48:45;;;;;;;19.65;14.25;;;9.90;99.90;;;;;;5069311;28;20052;-72
2023/10/27 07:51:10;;;;;;;18.60;14.05;;;9.90;99.90;;;;;;5073121;28;20040;-72
2023/10/27 07:53:37;;;;;;;16.67;13.88;;;9.90;99.90;;;;;;5075013;28;20177;-72
2023/10/27 07:56:04;;;;;;;16.80;14.50;;;9.90;99.90;;;;;;5048023;28;20151;-73
2023/10/27 07:58:30;;;;;;;17.13;13.77;;;9.90;99.90;;;;;;5069176;28;20512;-73
2023/10/27 08:00:56;;;;;;;16.25;13.52;;;9.90;99.90;;;;;;5073566;28;20088;-73
2023/10/27 08:03:22;;;;;;;17.60;13.85;;;9.90;99.90;;;;;;5070790;28;20067;-73
2023/10/27 08:05:51;;;;;;;16.45;12.93;;;10.00;99.90;;;;;;5070292;28;20048;-72
2023/10/27 08:08:17;;;;;;;19.05;12.98;;;9.90;99.90;;;;;;5063759;28;20055;-73
2023/10/27 08:10:46;;;;;;;15.90;13.02;;;10.00;99.90;;;;;;5069658;28;20124;-72
2023/10/27 08:13:12;;;;;;;12.13;10.65;;;9.90;99.90;;;;;;5060073;28;20049;-73
2023/10/27 08:15:38;;;;;;;14.63;11.82;;;10.00;99.90;;;;;;5045733;28;20057;-72
2023/10/27 08:18:05;;;;;;;15.85;12.70;;;10.00;99.90;;;;;;5048976;28;20064;-73
2023/10/27 08:20:30;;;;;;;15.15;12.38;;;10.00;99.90;;;;;;5070351;28;20510;-73
2023/10/27 08:22:56;;;;;;;13.23;11.57;;;10.00;99.90;;;;;;5068441;28;20059;-72
2023/10/27 08:25:22;;;;;;;13.43;11.23;;;10.00;99.90;;;;;;5063800;28;20072;-72
2023/10/27 08:27:49;;;;;;;11.52;9.90;;;10.00;99.90;;;;;;5074383;28;20048;-73
2023/10/27 08:30:15;;;;;;;13.80;10.80;;;10.00;99.90;;;;;;5073224;28;20067;-72
2023/10/27 08:32:41;;;;;;;11.82;9.95;;;10.00;99.90;;;;;;5073547;28;20040;-71
2023/10/27 08:35:07;;;;;;;13.15;8.85;;;10.00;99.90;;;;;;5063679;28;20107;-71
2023/10/27 08:37:33;;;;;;;10.30;8.88;;;10.00;99.90;;;;;;5071999;28;20351;-71
2023/10/27 08:39:59;;;;;;;10.50;8.25;;;10.00;99.90;;;;;;5073573;28;20044;-71
2023/10/27 08:42:28;;;;;;;12.50;9.65;;;10.00;99.90;;;;;;5061671;28;20055;-72
2023/10/27 08:44:57;;;;;;;9.55;8.32;;;10.10;99.90;;;;;;5059062;28;20405;-71
2023/10/27 08:47:23;;;;;;;9.80;8.73;;;10.10;99.90;;;;;;5070269;28;20083;-72
2023/10/27 08:49:48;;;;;;;11.65;9.90;;;10.10;99.90;;;;;;5060249;28;20037;-72
2023/10/27 08:52:15;;;;;;;13.52;9.80;;;10.20;99.90;;;;;;5065077;28;20424;-72
2023/10/27 08:54:41;;;;;;;9.02;8.07;;;10.20;99.90;;;;;;5070279;28;20076;-69
2023/10/27 08:57:08;;;;;;;9.88;7.93;;;10.20;99.90;;;;;;5068356;28;20049;-70
2023/10/27 08:59:35;;;;;;;12.18;8.68;;;10.20;99.90;;;;;;5068745;28;20044;-69
2023/10/27 09:02:02;;;;;;;10.30;7.55;;;10.30;99.90;;;;;;5071883;28;20044;-71
2023/10/27 09:04:27;;;;;;;8.18;6.35;;;10.30;99.90;;;;;;5078496;28;20097;-71
2023/10/27 09:06:53;;;;;;;11.00;6.78;;;10.40;99.90;;;;;;5085621;28;20478;-71
2023/10/27 09:09:19;;;;;;;9.43;7.95;;;10.40;99.90;;;;;;5073224;28;20059;-72
2023/10/27 09:11:51;;;;;;;9.48;7.70;;;10.40;99.90;;;;;;5071030;28;20413;-71
2023/10/27 09:14:30;;;;;;;7.75;6.55;;;10.40;99.90;;;;;;5058803;28;20124;-71
2023/10/27 09:17:06;;;;;;;8.38;7.18;;;10.50;99.90;;;;;;5063235;28;20094;-71
2023/10/27 09:19:32;;;;;;;8.48;6.78;;;10.40;99.90;;;;;;5071889;28;20486;-72
2023/10/27 09:21:58;;;;;;;8.15;6.70;;;10.50;99.90;;;;;;5069309;28;20041;-73
2023/10/27 09:24:29;;;;;;;8.20;6.80;;;10.50;99.90;;;;;;5071833;28;20221;-72
2023/10/27 09:26:57;;;;;;;12.95;6.60;;;10.50;99.90;;;;;;5073320;28;20044;-72
2023/10/27 09:29:23;;;;;;;7.82;5.90;;;10.60;99.90;;;;;;5069054;28;20045;-73
2023/10/27 09:31:50;;;;;;;7.45;5.82;;;10.60;99.90;;;;;;5069735;28;20044;-72
2023/10/27 09:34:19;;;;;;;7.95;5.80;;;10.60;99.90;;;;;;5068050;28;20060;-72
2023/10/27 09:36:46;;;;;;;8.32;6.25;;;10.50;99.90;;;;;;5071986;28;20052;-73
2023/10/27 09:39:18;;;;;;;7.88;6.28;;;10.60;99.90;;;;;;5071923;28;20078;-72
2023/10/27 09:42:04;;;;;;;8.05;6.40;;;10.60;99.90;;;;;;5071037;28;20094;-72
2023/10/27 09:45:06;;;;;;;8.38;5.65;;;10.60;99.90;;;;;;5072665;28;20055;-72
2023/10/27 09:47:41;;;;;;;7.30;5.80;;;10.70;99.90;;;;;;5061946;28;20044;-72
2023/10/27 09:50:10;;;;;;;9.02;4.80;;;10.70;99.90;;;;;;5053794;28;20102;-72
2023/10/27 09:52:40;;;;;;;7.30;6.13;;;10.80;99.90;;;;;;5065509;28;20040;-72
2023/10/27 09:55:07;;;;;;;8.15;6.30;;;10.70;99.90;;;;;;5067743;28;20052;-71
2023/10/27 09:57:34;;;;;;;6.78;5.43;;;10.80;99.90;;;;;;5059382;28;20055;-71
2023/10/27 10:00:01;;;;;;;7.60;5.75;;;10.80;99.90;;;;;;5044272;28;20357;-73
2023/10/27 10:02:31;;;;;;;8.05;5.80;;;10.80;99.90;;;;;;5067236;28;20490;-71
2023/10/27 10:04:57;;;;;;;8.75;5.22;;;10.90;99.90;;;;;;5068714;28;20040;-71
2023/10/27 10:07:37;;;;;;;6.20;4.82;;;10.90;99.90;;;;;;5071005;28;20048;-71
2023/10/27 10:10:43;;;;;;;7.85;5.00;;;11.00;99.90;;;;;;5072371;28;20137;-73
2023/10/27 10:13:09;;;;;;;;;;;11.00;99.90;;;;;;5054153;28;20086;-72
2023/10/27 10:15:43;;;;;;;6.97;5.25;;;11.00;99.90;;;;;;5044958;28;19928;-71
2023/10/27 10:18:25;;;;;;;7.43;4.97;;;11.00;99.90;;;;;;5054751;28;20449;-73
2023/10/27 10:20:58;;;;;;;6.50;4.63;;;11.00;99.90;;;;;;5069584;28;20048;-73
2023/10/27 10:23:37;;;;;;;6.50;5.10;;;11.10;99.90;;;;;;5059709;28;20057;-72
2023/10/27 10:26:04;;;;;;;8.25;4.72;;;11.10;99.90;;;;;;5071314;28;20433;-71
2023/10/27 10:28:33;;;;;;;7.35;3.63;;;11.20;99.90;;;;;;5070337;28;20036;-72
2023/10/27 10:31:14;;;;;;;5.93;5.03;;;11.20;99.90;;;;;;5072031;28;21182;-72
2023/10/27 10:33:44;;;;;;;5.57;4.55;;;11.20;99.90;;;;;;5069331;28;20040;-71
2023/10/27 10:36:18;;;;;;;5.40;3.83;;;11.20;99.90;;;;;;5071278;28;20113;-71
2023/10/27 10:38:53;;;;;;;6.30;5.03;;;11.20;99.90;;;;;;5071643;28;20047;-69
2023/10/27 10:41:19;;;;;;;6.88;5.20;;;11.20;99.90;;;;;;5070318;28;20367;-70
2023/10/27 10:44:06;;;;;;;7.20;5.00;;;11.20;99.90;;;;;;5071734;28;20093;-70
2023/10/27 10:46:32;;;;;;;7.13;5.05;;;11.20;99.90;;;;;;5067834;28;20048;-71
2023/10/27 10:48:57;;;;;;;6.75;5.18;;;11.20;99.90;;;;;;5071912;28;20040;-71
2023/10/27 10:51:30;;;;;;;7.40;5.15;;;11.20;99.90;;;;;;5070941;28;20046;-69
2023/10/27 10:53:56;;;;;;;6.97;5.55;;;11.20;99.90;;;;;;5070771;28;20052;-71
2023/10/27 10:56:23;;;;;;;6.95;5.20;;;11.20;99.90;;;;;;5071965;28;20049;-70
2023/10/27 10:58:49;;;;;;;7.53;5.68;;;11.20;99.90;;;;;;5069313;28;20076;-72
2023/10/27 11:01:16;;;;;;;6.70;5.55;;;11.10;99.90;;;;;;5059433;28;20048;-70
2023/10/27 11:03:46;;;;;;;6.88;5.47;;;11.20;99.90;;;;;;5068660;28;20052;-70
2023/10/27 11:06:12;;;;;;;7.07;5.35;;;11.20;99.90;;;;;;5071773;28;20051;-72
2023/10/27 11:08:38;;;;;;;7.60;5.97;;;11.20;99.90;;;;;;5070461;28;20048;-71
2023/10/27 11:11:13;;;;;;;7.32;4.85;;;11.20;99.90;;;;;;5054304;28;20051;-71
2023/10/27 11:13:51;;;;;;;7.78;6.18;;;11.20;99.90;;;;;;5058117;28;20098;-71
2023/10/27 11:16:23;;;;;;;8.73;6.00;;;11.10;99.90;;;;;;5055708;28;20390;-71
2023/10/27 11:18:53;;;;;;;7.43;5.97;;;11.10;99.90;;;;;;5065706;28;20101;-71
2023/10/27 11:21:22;;;;;;;8.60;6.07;;;11.10;99.90;;;;;;5053915;28;20410;-71
2023/10/27 11:23:48;;;;;;;8.98;6.95;;;11.10;99.90;;;;;;5059809;28;20113;-71
2023/10/27 11:26:16;;;;;;;9.25;6.47;;;11.10;99.90;;;;;;5067319;28;20111;-71
2023/10/27 11:28:44;;;;;;;10.60;7.00;;;11.10;99.90;;;;;;5054596;28;20471;-71
2023/10/27 11:31:19;;;;;;;8.30;6.50;;;11.10;99.90;;;;;;5063711;28;20444;-70
2023/10/27 11:34:06;;;;;;;9.02;7.63;;;11.10;99.90;;;;;;5070053;28;20040;-73
2023/10/27 11:36:34;;;;;;;7.72;5.95;;;11.10;99.90;;;;;;5051099;28;20041;-73
2023/10/27 11:39:15;;;;;;;10.90;6.20;;;11.10;99.90;;;;;;5078647;28;20059;-72
2023/10/27 11:41:49;;;;;;;7.75;6.50;;;11.10;99.90;;;;;;5064789;28;20041;-72
2023/10/27 11:44:16;;;;;;;7.65;6.20;;;11.10;99.90;;;;;;5070735;28;20577;-72
2023/10/27 11:46:50;;;;;;;10.32;6.65;;;11.10;99.90;;;;;;5059930;28;20476;-73
2023/10/27 11:49:16;;;;;;;7.90;6.55;;;11.10;99.90;;;;;;5074254;28;20060;-72
2023/10/27 11:51:46;;;;;;;8.90;7.07;;;11.10;99.90;;;;;;5061755;28;20093;-73
2023/10/27 11:54:12;;;;;;;8.45;7.00;;;11.10;99.90;;;;;;5051935;28;20044;-72
2023/10/27 11:56:38;;;;;;;12.13;7.35;;;11.10;99.90;;;;;;5055312;28;20112;-73
2023/10/27 11:59:05;;;;;;;9.88;7.25;;;11.10;99.90;;;;;;5051457;28;20041;-73
2023/10/27 12:01:31;;;;;;;10.40;7.50;;;11.10;99.90;;;;;;5063894;28;20045;-73
2023/10/27 12:03:57;;;;;;;9.38;7.57;;;11.10;99.90;;;;;;5052172;28;20175;-73
2023/10/27 12:06:23;;;;;;;9.15;7.35;;;11.00;99.90;;;;;;5062581;28;20492;-72
2023/10/27 12:08:49;;;;;;;9.32;7.38;;;11.10;99.90;;;;;;5049924;28;20133;-73
2023/10/27 12:11:17;;;;;;;8.82;7.30;;;11.00;99.90;;;;;;5053015;28;20049;-73
2023/10/27 12:13:44;;;;;;;8.55;7.28;;;11.00;99.90;;;;;;5063422;28;20045;-73
2023/10/27 12:16:10;;;;;;;9.20;7.05;;;11.00;99.90;;;;;;5061577;28;20053;-73
2023/10/27 12:18:36;;;;;;;10.93;8.20;;;11.10;99.90;;;;;;5067141;28;20081;-73
2023/10/27 12:21:02;;;;;;;10.02;8.05;;;11.00;99.90;;;;;;5049417;28;20142;-73
2023/10/27 12:23:32;;;;;;;9.63;7.70;;;11.00;99.90;;;;;;5056541;28;20049;-73
2023/10/27 12:26:01;;;;;;;10.38;7.68;;;11.00;99.90;;;;;;5061328;28;20194;-73
2023/10/27 12:28:27;;;;;;;9.50;7.53;;;11.00;99.90;;;;;;5062985;28;20049;-73
2023/10/27 12:30:58;;;;;;;10.02;7.57;;;11.00;99.90;;;;;;5033157;28;20059;-73
2023/10/27 12:33:24;;;;;;;10.88;8.73;;;11.00;99.90;;;;;;5050073;28;20044;-73
2023/10/27 12:35:50;;;;;;;10.50;8.43;;;11.00;99.90;;;;;;5062528;28;20105;-70